Time;durP1;ratioP1;P1;durP2;ratioP2;P2;SDS_P1;SDS_P2;PMS_P1;PMS_P2;Temp;Humidity;BMP_temperature;BMP_pressure;BME280_temperature;BME280_humidity;BME280_pressure;Samples;Min_cycle;Max_cycle;Signal;HPM_P1;HPM_P2
2021/05/22 00:00:53;;;;;;;9.50;8.20;;;15.00;99.90;;;;;;5034551;28;20463;-67
2021/05/22 00:03:18;;;;;;;8.60;7.90;;;15.10;99.90;;;;;;5032987;28;20879;-68
2021/05/22 00:05:44;;;;;;;9.83;8.90;;;15.00;99.90;;;;;;5034402;28;20703;-68
2021/05/22 00:08:10;;;;;;;11.60;8.43;;;15.00;99.90;;;;;;5032984;28;20206;-67
2021/05/22 00:10:35;;;;;;;10.13;9.20;;;15.00;99.90;;;;;;5034126;28;20225;-68
2021/05/22 00:13:02;;;;;;;8.10;7.40;;;15.00;99.90;;;;;;5034209;28;20843;-69
2021/05/22 00:15:28;;;;;;;9.00;8.10;;;14.90;99.90;;;;;;5034235;28;20181;-70
2021/05/22 00:17:53;;;;;;;11.80;10.80;;;14.90;99.90;;;;;;5034063;28;20431;-70
2021/05/22 00:20:19;;;;;;;9.30;8.27;;;14.90;99.90;;;;;;5034090;28;20533;-69
2021/05/22 00:22:45;;;;;;;9.07;8.23;;;15.00;99.90;;;;;;5034371;28;20257;-69
2021/05/22 00:25:12;;;;;;;8.80;8.00;;;15.00;99.90;;;;;;5034009;28;20175;-68
2021/05/22 00:27:37;;;;;;;10.10;9.10;;;15.00;99.90;;;;;;5032820;28;20217;-70
2021/05/22 00:30:04;;;;;;;9.87;8.97;;;14.90;99.90;;;;;;5034001;28;20408;-68
2021/05/22 00:32:30;;;;;;;9.03;8.20;;;14.90;99.90;;;;;;5034288;28;20788;-70
2021/05/22 00:34:56;;;;;;;10.00;8.13;;;14.90;99.90;;;;;;5033946;28;20434;-70
2021/05/22 00:37:21;;;;;;;10.00;8.97;;;14.80;99.90;;;;;;5034205;28;20194;-69
2021/05/22 00:39:47;;;;;;;10.80;8.90;;;14.70;99.90;;;;;;5033928;28;20183;-69
2021/05/22 00:42:12;;;;;;;10.80;9.80;;;14.80;99.90;;;;;;5033967;28;20269;-68
2021/05/22 00:45:14;;;;;;;9.40;8.53;;;14.80;99.90;;;;;;5033862;28;20174;-69
2021/05/22 00:48:07;;;;;;;10.17;9.13;;;14.70;99.90;;;;;;5034120;28;20205;-67
2021/05/22 00:50:36;;;;;;;9.40;8.50;;;14.70;99.90;;;;;;5030730;28;20420;-70
2021/05/22 00:53:03;;;;;;;10.27;9.17;;;14.60;99.90;;;;;;5033562;28;20474;-67
2021/05/22 00:55:29;;;;;;;11.30;10.20;;;14.50;99.90;;;;;;5033776;28;20885;-67
2021/05/22 00:57:56;;;;;;;10.90;9.83;;;14.50;99.90;;;;;;5033048;28;20427;-69
2021/05/22 01:00:46;;;;;;;10.30;9.30;;;14.50;99.90;;;;;;5033640;28;20557;-68
2021/05/22 01:03:24;;;;;;;9.47;8.67;;;14.50;99.90;;;;;;5024954;28;20511;-69
2021/05/22 01:05:52;;;;;;;10.90;9.90;;;14.50;99.90;;;;;;5032288;28;20423;-69
2021/05/22 01:08:23;;;;;;;11.10;10.00;;;14.50;99.90;;;;;;5033430;28;20431;-67
2021/05/22 01:11:07;;;;;;;11.93;10.47;;;14.40;99.90;;;;;;5033615;28;20475;-68
2021/05/22 01:13:37;;;;;;;10.67;9.70;;;14.40;99.90;;;;;;5032283;28;20454;-68
2021/05/22 01:16:03;;;;;;;11.47;10.33;;;14.40;99.90;;;;;;5032203;28;20944;-69
2021/05/22 01:18:30;;;;;;;14.93;10.37;;;14.40;99.90;;;;;;5033463;28;20431;-68
2021/05/22 01:20:58;;;;;;;11.20;10.10;;;14.30;99.90;;;;;;5033573;28;20511;-69
2021/05/22 01:23:50;;;;;;;11.47;10.30;;;14.20;99.90;;;;;;5033253;28;20463;-67
2021/05/22 01:26:16;;;;;;;11.30;10.30;;;14.20;99.90;;;;;;5033367;28;20420;-67
2021/05/22 01:28:44;;;;;;;11.93;10.83;;;14.10;99.90;;;;;;5033467;28;20400;-69
2021/05/22 01:31:09;;;;;;;11.80;10.70;;;14.10;99.90;;;;;;5033337;28;20426;-70
2021/05/22 01:33:36;;;;;;;12.00;10.80;;;14.10;99.90;;;;;;5032077;28;20416;-69
2021/05/22 01:36:02;;;;;;;12.57;11.30;;;14.00;99.90;;;;;;5033419;28;20186;-69
2021/05/22 01:38:28;;;;;;;12.00;10.90;;;14.00;99.90;;;;;;5033226;28;20949;-69
2021/05/22 01:40:53;;;;;;;12.23;11.03;;;14.00;99.90;;;;;;5033278;28;20437;-67
2021/05/22 01:43:20;;;;;;;12.60;11.40;;;13.90;99.90;;;;;;5031844;28;20694;-70
2021/05/22 01:45:47;;;;;;;12.87;11.57;;;13.90;99.90;;;;;;5033284;28;20450;-69
2021/05/22 01:48:19;;;;;;;14.77;13.40;;;13.90;99.90;;;;;;5031888;28;20506;-68
2021/05/22 01:50:50;;;;;;;13.17;11.90;;;13.80;99.90;;;;;;5033173;28;20451;-68
2021/05/22 01:53:17;;;;;;;13.13;11.93;;;13.80;99.90;;;;;;5033188;28;20442;-69
2021/05/22 01:55:46;;;;;;;13.47;12.07;;;13.70;99.90;;;;;;5033140;28;20418;-69
2021/05/22 01:58:12;;;;;;;14.53;12.30;;;13.60;99.90;;;;;;5033011;28;20434;-69
2021/05/22 02:00:39;;;;;;;15.17;13.77;;;13.70;99.90;;;;;;5031809;28;20470;-68
2021/05/22 02:03:08;;;;;;;16.40;12.80;;;13.60;99.90;;;;;;5031653;28;20525;-67
2021/05/22 02:05:35;;;;;;;48.77;16.77;;;13.60;99.90;;;;;;5033159;28;20412;-69
2021/05/22 02:08:02;;;;;;;13.90;12.60;;;13.60;99.90;;;;;;5032974;28;20451;-70
2021/05/22 02:10:29;;;;;;;14.27;12.97;;;13.60;99.90;;;;;;5034560;28;20454;-69
2021/05/22 02:12:57;;;;;;;15.23;13.83;;;13.50;99.90;;;;;;5036455;28;20489;-68
2021/05/22 02:15:25;;;;;;;14.60;13.30;;;13.50;99.90;;;;;;5036329;28;20782;-68
2021/05/22 02:17:52;;;;;;;14.70;13.40;;;13.50;99.90;;;;;;5036356;28;20513;-68
2021/05/22 02:20:21;;;;;;;15.23;13.83;;;13.60;99.90;;;;;;5036320;28;20766;-70
2021/05/22 02:22:47;;;;;;;14.50;13.13;;;13.50;99.90;;;;;;5036669;28;20479;-70
2021/05/22 02:25:14;;;;;;;17.33;15.63;;;13.50;99.90;;;;;;5036332;28;20937;-68
2021/05/22 02:27:40;;;;;;;17.10;15.30;;;13.50;99.90;;;;;;5036546;28;20431;-67
2021/05/22 02:30:08;;;;;;;16.57;14.90;;;13.50;99.90;;;;;;5036215;28;20407;-69
2021/05/22 02:32:37;;;;;;;15.70;14.03;;;13.60;99.90;;;;;;5036527;28;20194;-68
2021/05/22 02:35:04;;;;;;;17.40;15.80;;;13.50;99.90;;;;;;5034801;28;20430;-69
2021/05/22 02:37:31;;;;;;;18.00;16.30;;;13.50;99.90;;;;;;5034617;28;20968;-69
2021/05/22 02:39:59;;;;;;;16.60;15.00;;;13.60;99.90;;;;;;5036080;28;20404;-69
2021/05/22 02:42:27;;;;;;;18.03;16.37;;;13.60;99.90;;;;;;5036188;28;20479;-69
2021/05/22 02:44:55;;;;;;;17.47;15.20;;;13.50;99.90;;;;;;5036058;28;20806;-67
2021/05/22 02:47:24;;;;;;;17.10;15.40;;;13.50;99.90;;;;;;5034871;28;20543;-67
2021/05/22 02:49:50;;;;;;;17.53;15.83;;;13.50;99.90;;;;;;5035824;28;20404;-69
2021/05/22 02:52:20;;;;;;;18.60;16.70;;;13.40;99.90;;;;;;5035993;28;20450;-68
2021/05/22 02:54:48;;;;;;;16.83;15.27;;;13.40;99.90;;;;;;5035809;28;20182;-69
2021/05/22 02:57:17;;;;;;;17.73;15.93;;;13.30;99.90;;;;;;5034414;28;20454;-67
2021/05/22 02:59:43;;;;;;;18.60;16.90;;;13.30;99.90;;;;;;5034398;28;20441;-68
2021/05/22 03:02:10;;;;;;;18.10;16.30;;;13.30;99.90;;;;;;5035412;28;20558;-68
2021/05/22 03:04:35;;;;;;;25.93;16.17;;;13.30;99.90;;;;;;5035526;28;20407;-70
2021/05/22 03:07:02;;;;;;;18.07;16.30;;;13.20;99.90;;;;;;5035745;28;20755;-69
2021/05/22 03:09:28;;;;;;;18.37;16.67;;;13.20;99.90;;;;;;5033196;28;20589;-68
2021/05/22 03:11:54;;;;;;;17.90;16.00;;;13.30;99.90;;;;;;5035595;28;20532;-69
2021/05/22 03:14:20;;;;;;;18.53;16.83;;;13.30;99.90;;;;;;5035396;28;20502;-68
2021/05/22 03:16:46;;;;;;;19.07;17.27;;;13.30;99.90;;;;;;5035628;28;20442;-68
2021/05/22 03:19:11;;;;;;;18.90;17.00;;;13.30;99.90;;;;;;5035241;28;20444;-69
2021/05/22 03:21:37;;;;;;;18.50;16.60;;;13.30;99.90;;;;;;5034880;28;20199;-69
2021/05/22 03:24:05;;;;;;;18.23;16.53;;;13.40;99.90;;;;;;5035179;28;20175;-67
2021/05/22 03:26:31;;;;;;;19.73;17.73;;;13.40;99.90;;;;;;5033610;28;20194;-67
2021/05/22 03:28:56;;;;;;;19.47;17.57;;;13.40;99.90;;;;;;5035092;28;20418;-69
2021/05/22 03:31:22;;;;;;;20.27;18.10;;;13.40;99.90;;;;;;5033615;28;20449;-67
2021/05/22 03:33:48;;;;;;;19.43;17.53;;;13.30;99.90;;;;;;5035021;28;20245;-68
2021/05/22 03:36:14;;;;;;;20.07;18.10;;;13.30;99.90;;;;;;5034973;28;20540;-68
2021/05/22 03:38:40;;;;;;;18.50;16.60;;;13.20;99.90;;;;;;5033646;28;20558;-70
2021/05/22 03:41:05;;;;;;;18.60;16.83;;;13.20;99.90;;;;;;5034917;28;20418;-67
2021/05/22 03:43:31;;;;;;;17.87;16.00;;;13.20;99.90;;;;;;5033333;28;20692;-68
2021/05/22 03:45:57;;;;;;;18.97;17.27;;;13.30;99.90;;;;;;5033430;28;20428;-69
2021/05/22 03:48:23;;;;;;;18.03;16.23;;;13.30;99.90;;;;;;5033352;28;20506;-67
2021/05/22 03:50:49;;;;;;;18.07;16.43;;;13.30;99.90;;;;;;5034631;28;20193;-68
2021/05/22 03:53:15;;;;;;;18.63;16.70;;;13.30;99.90;;;;;;5034535;28;20190;-70
2021/05/22 03:55:41;;;;;;;18.37;16.57;;;13.40;99.90;;;;;;5034619;28;20220;-70
2021/05/22 03:58:07;;;;;;;18.50;16.70;;;13.40;99.90;;;;;;5034558;28;20424;-68
2021/05/22 04:00:34;;;;;;;18.27;16.67;;;13.30;99.90;;;;;;5034515;28;20399;-68
2021/05/22 04:03:00;;;;;;;19.83;17.80;;;13.40;99.90;;;;;;5034329;28;20474;-68
2021/05/22 04:05:26;;;;;;;18.73;17.03;;;13.30;99.90;;;;;;5034305;28;20392;-70
2021/05/22 04:07:51;;;;;;;19.47;17.23;;;13.30;99.90;;;;;;5034393;28;20432;-68
2021/05/22 04:10:17;;;;;;;18.27;16.50;;;13.30;99.90;;;;;;5032179;28;20462;-67
2021/05/22 04:12:43;;;;;;;17.83;16.03;;;13.40;99.90;;;;;;5033142;28;20292;-69
2021/05/22 04:15:09;;;;;;;18.53;16.67;;;13.30;99.90;;;;;;5032942;28;20178;-68
2021/05/22 04:17:35;;;;;;;19.17;17.37;;;13.30;99.90;;;;;;5049715;28;20206;-67
2021/05/22 04:20:01;;;;;;;18.63;16.47;;;13.30;99.90;;;;;;5034261;28;20410;-68
2021/05/22 04:22:27;;;;;;;16.30;14.80;;;13.30;99.90;;;;;;5034465;28;20242;-68
2021/05/22 04:24:52;;;;;;;18.50;16.80;;;13.30;99.90;;;;;;5032834;28;20553;-69
2021/05/22 04:27:18;;;;;;;19.10;16.60;;;13.30;99.90;;;;;;5034246;28;20285;-68
2021/05/22 04:29:44;;;;;;;19.23;17.43;;;13.40;99.90;;;;;;5034062;28;20183;-69
2021/05/22 04:32:09;;;;;;;19.30;17.27;;;13.40;99.90;;;;;;5032184;28;20195;-70
2021/05/22 04:34:35;;;;;;;17.77;16.03;;;13.40;99.90;;;;;;5033725;28;20205;-69
2021/05/22 04:37:01;;;;;;;19.10;17.03;;;13.40;99.90;;;;;;5034104;28;20198;-69
2021/05/22 04:39:27;;;;;;;16.73;15.23;;;13.50;99.90;;;;;;5033919;28;20644;-68
2021/05/22 04:41:53;;;;;;;18.47;16.60;;;13.40;99.90;;;;;;5032532;28;20618;-68
2021/05/22 04:44:19;;;;;;;19.13;17.23;;;13.50;99.90;;;;;;5033798;28;20179;-68
2021/05/22 04:46:44;;;;;;;18.33;16.63;;;13.40;99.90;;;;;;5034146;28;20198;-68
2021/05/22 04:49:10;;;;;;;17.50;15.70;;;13.50;99.90;;;;;;5032474;28;20644;-68
2021/05/22 04:51:36;;;;;;;17.17;15.47;;;13.60;99.90;;;;;;5049058;28;20202;-68
2021/05/22 04:54:07;;;;;;;16.87;15.30;;;13.60;99.90;;;;;;5032493;28;20632;-70
2021/05/22 04:56:33;;;;;;;16.57;15.17;;;13.60;99.90;;;;;;5032466;28;20195;-70
2021/05/22 04:58:59;;;;;;;16.23;14.67;;;13.60;99.90;;;;;;5033599;28;20407;-70
2021/05/22 05:01:25;;;;;;;16.20;14.50;;;13.60;99.90;;;;;;5033570;28;20419;-67
2021/05/22 05:03:51;;;;;;;14.87;13.43;;;13.70;99.90;;;;;;5033538;28;20625;-68
2021/05/22 05:06:17;;;;;;;16.37;14.77;;;13.80;99.90;;;;;;5033572;28;20446;-69
2021/05/22 05:08:43;;;;;;;16.07;14.30;;;13.80;99.90;;;;;;5033578;28;20787;-68
2021/05/22 05:11:09;;;;;;;14.43;13.03;;;13.90;99.90;;;;;;5022909;28;20525;-68
2021/05/22 05:13:35;;;;;;;15.13;13.47;;;14.00;99.90;;;;;;5033567;28;20436;-67
2021/05/22 05:16:02;;;;;;;14.03;12.70;;;14.10;99.90;;;;;;5032196;28;20428;-69
2021/05/22 05:18:28;;;;;;;13.50;12.30;;;14.20;99.90;;;;;;5033490;28;20718;-69
2021/05/22 05:20:53;;;;;;;14.50;13.10;;;14.20;99.90;;;;;;5033530;28;20430;-68
2021/05/22 05:23:19;;;;;;;13.67;12.37;;;14.20;99.90;;;;;;5033240;28;20467;-69
2021/05/22 05:25:45;;;;;;;13.37;12.17;;;14.30;99.90;;;;;;5032178;28;20179;-69
2021/05/22 05:28:11;;;;;;;13.43;12.17;;;14.40;99.90;;;;;;5033316;28;20236;-68
2021/05/22 05:30:36;;;;;;;12.87;11.53;;;14.40;99.90;;;;;;5033429;28;20185;-67
2021/05/22 05:33:02;;;;;;;12.53;11.20;;;14.50;99.90;;;;;;5033275;28;20242;-69
2021/05/22 05:35:28;;;;;;;12.10;10.90;;;14.50;99.90;;;;;;5032060;28;20232;-67
2021/05/22 05:37:54;;;;;;;12.57;11.37;;;14.70;99.90;;;;;;5033293;28;20190;-68
2021/05/22 05:40:20;;;;;;;11.70;10.60;;;14.70;99.90;;;;;;5032004;28;20194;-68
2021/05/22 05:42:50;;;;;;;12.13;11.03;;;14.80;99.90;;;;;;5031982;28;20309;-67
2021/05/22 05:45:15;;;;;;;11.63;10.40;;;14.90;99.90;;;;;;5036159;28;20496;-70
2021/05/22 05:47:41;;;;;;;11.30;10.30;;;15.00;99.90;;;;;;5037383;28;20869;-67
2021/05/22 05:50:08;;;;;;;11.90;10.70;;;15.10;99.90;;;;;;5036978;28;20410;-69
2021/05/22 05:52:34;;;;;;;11.63;10.53;;;15.20;99.90;;;;;;5035409;28;20194;-68
2021/05/22 05:54:59;;;;;;;12.70;10.87;;;15.30;99.90;;;;;;5036896;28;20469;-69
2021/05/22 05:57:25;;;;;;;11.40;10.40;;;15.50;99.90;;;;;;5035697;28;20559;-69
2021/05/22 05:59:51;;;;;;;9.27;8.47;;;15.60;99.90;;;;;;5036763;28;20699;-71
2021/05/22 06:02:17;;;;;;;10.80;9.50;;;15.80;99.90;;;;;;5035394;28;20467;-70
2021/05/22 06:04:42;;;;;;;8.60;7.80;;;15.90;99.90;;;;;;5035476;28;20213;-69
2021/05/22 06:07:08;;;;;;;12.33;7.67;;;16.10;99.90;;;;;;5035497;28;20744;-70
2021/05/22 06:09:34;;;;;;;6.57;5.97;;;16.20;99.90;;;;;;5036611;28;20253;-68
2021/05/22 06:12:00;;;;;;;7.27;6.57;;;16.30;99.90;;;;;;5032223;28;20269;-70
2021/05/22 06:14:35;;;;;;;7.17;6.47;;;16.40;99.90;;;;;;5024746;28;20455;-69
2021/05/22 06:17:00;;;;;;;7.77;6.97;;;16.40;99.90;;;;;;5036359;28;20451;-68
2021/05/22 06:19:26;;;;;;;6.03;5.50;;;16.50;99.90;;;;;;5036414;28;20453;-70
2021/05/22 06:21:52;;;;;;;8.63;6.67;;;16.70;99.90;;;;;;5034966;28;20554;-70
2021/05/22 06:24:17;;;;;;;7.23;6.63;;;16.90;99.90;;;;;;5036299;28;20265;-70
2021/05/22 06:26:43;;;;;;;7.50;5.73;;;17.00;99.90;;;;;;5036590;28;20233;-68
2021/05/22 06:29:09;;;;;;;6.67;6.07;;;17.20;99.90;;;;;;5036194;28;20686;-68
2021/05/22 06:31:34;;;;;;;5.83;5.33;;;17.40;99.90;;;;;;5036247;28;20198;-68
2021/05/22 06:34:00;;;;;;;5.90;5.23;;;17.50;99.90;;;;;;5035111;28;20189;-70
2021/05/22 06:36:28;;;;;;;4.40;4.00;;;17.80;99.90;;;;;;5036283;28;20182;-69
2021/05/22 06:38:54;;;;;;;4.07;3.67;;;17.80;99.90;;;;;;5035968;28;20171;-71
2021/05/22 06:41:21;;;;;;;4.37;3.60;;;18.00;99.90;;;;;;5034635;28;20799;-68
2021/05/22 06:43:47;;;;;;;4.40;3.70;;;17.90;99.90;;;;;;5035934;28;21024;-68
2021/05/22 06:48:39;;;;;;;3.73;3.43;;;17.80;99.90;;;;;;5036095;28;20404;-69
2021/05/22 06:51:05;;;;;;;3.80;3.50;;;18.00;99.90;;;;;;5034550;28;20416;-70
2021/05/22 06:53:31;;;;;;;6.03;3.97;;;18.20;99.90;;;;;;5035710;28;20435;-70
2021/05/22 06:55:58;;;;;;;5.90;3.60;;;18.40;99.90;;;;;;5033665;28;20234;-68
2021/05/22 06:58:24;;;;;;;3.40;2.80;;;18.90;99.90;;;;;;5035655;28;20791;-69
2021/05/22 07:00:49;;;;;;;6.43;3.07;;;19.00;99.90;;;;;;5035679;28;20414;-69
2021/05/22 07:03:15;;;;;;;3.23;2.17;;;19.10;99.90;;;;;;5035456;28;20225;-68
2021/05/22 07:05:41;;;;;;;5.70;2.87;;;19.10;99.90;;;;;;5034323;28;20200;-69
2021/05/22 07:08:07;;;;;;;3.00;2.40;;;19.20;99.90;;;;;;5034106;28;20199;-70
2021/05/22 07:10:33;;;;;;;2.47;2.27;;;19.40;99.90;;;;;;5034753;28;20799;-69
2021/05/22 07:12:58;;;;;;;3.10;2.10;;;19.60;99.90;;;;;;5035405;28;20192;-69
2021/05/22 07:15:37;;;;;;;2.10;1.90;;;19.50;99.90;;;;;;5032708;28;20238;-70
2021/05/22 07:18:02;;;;;;;2.70;1.77;;;19.40;99.90;;;;;;5035248;28;20253;-69
2021/05/22 07:20:28;;;;;;;4.67;2.10;;;19.70;99.90;;;;;;5035254;28;20740;-71
2021/05/22 07:22:55;;;;;;;2.83;1.73;;;19.90;99.90;;;;;;5035176;28;20220;-69
2021/05/22 07:25:25;;;;;;;4.07;2.07;;;20.00;99.90;;;;;;5033811;28;20227;-68
2021/05/22 07:27:52;;;;;;;3.90;2.10;;;20.00;99.90;;;;;;5035074;28;20894;-68
2021/05/22 07:30:19;;;;;;;2.60;1.53;;;20.00;99.90;;;;;;5035000;28;20407;-69
2021/05/22 07:32:45;;;;;;;1.90;1.80;;;20.10;99.90;;;;;;5035399;28;20805;-69
2021/05/22 07:35:13;;;;;;;1.60;1.50;;;20.10;99.90;;;;;;5034997;28;20404;-69
2021/05/22 07:37:39;;;;;;;4.30;2.07;;;20.20;99.90;;;;;;5035339;28;20446;-70
2021/05/22 07:40:07;;;;;;;1.70;1.50;;;20.10;99.90;;;;;;5034904;28;20497;-69
2021/05/22 07:42:33;;;;;;;2.00;1.67;;;20.00;99.90;;;;;;5035306;28;20876;-69
2021/05/22 07:45:00;;;;;;;2.60;1.87;;;19.90;99.90;;;;;;5034823;28;20402;-71
2021/05/22 07:47:26;;;;;;;1.80;1.70;;;20.00;99.90;;;;;;5034611;28;20243;-68
2021/05/22 07:49:52;;;;;;;2.10;1.40;;;20.00;99.90;;;;;;5034701;28;20412;-71
2021/05/22 07:52:19;;;;;;;3.13;2.73;;;19.70;99.90;;;;;;5033465;28;20454;-69
2021/05/22 07:54:45;;;;;;;1.37;1.20;;;19.60;99.90;;;;;;5033354;28;20423;-71
2021/05/22 07:57:12;;;;;;;1.63;1.30;;;19.50;99.90;;;;;;5034841;28;20514;-70
2021/05/22 07:59:38;;;;;;;2.17;1.93;;;19.50;99.90;;;;;;5033263;28;20939;-70
2021/05/22 08:02:05;;;;;;;3.70;1.77;;;19.20;99.90;;;;;;5034719;28;20804;-69
2021/05/22 08:04:31;;;;;;;2.90;2.13;;;19.00;99.90;;;;;;5034445;28;20410;-69
2021/05/22 08:06:58;;;;;;;2.30;1.70;;;19.00;99.90;;;;;;5033132;28;20454;-68
2021/05/22 08:09:23;;;;;;;3.50;2.10;;;18.80;99.90;;;;;;5034219;28;20769;-70
2021/05/22 08:11:49;;;;;;;2.17;1.97;;;18.70;99.90;;;;;;5034491;28;20441;-70
2021/05/22 08:14:16;;;;;;;2.40;2.20;;;18.80;99.90;;;;;;5032104;28;20676;-69
2021/05/22 08:16:47;;;;;;;6.30;4.90;;;18.50;99.90;;;;;;5033807;28;20469;-69
2021/05/22 08:19:13;;;;;;;7.67;6.60;;;18.40;99.90;;;;;;5034146;28;20423;-69
2021/05/22 08:21:40;;;;;;;2.93;2.63;;;18.20;99.90;;;;;;5032755;28;20469;-70
2021/05/22 08:24:07;;;;;;;2.73;2.07;;;17.80;99.90;;;;;;5034053;28;20403;-69
2021/05/22 08:26:32;;;;;;;3.40;2.43;;;17.80;99.90;;;;;;5034114;28;20520;-68
2021/05/22 08:28:59;;;;;;;4.47;3.17;;;17.50;99.90;;;;;;5034068;28;20452;-69
2021/05/22 08:31:24;;;;;;;3.33;3.10;;;17.30;99.90;;;;;;5034178;28;20585;-69
2021/05/22 08:33:50;;;;;;;9.03;3.00;;;17.00;99.90;;;;;;5032732;28;20431;-69
2021/05/22 08:36:16;;;;;;;5.50;3.40;;;16.70;99.90;;;;;;5034089;28;20513;-68
2021/05/22 08:38:43;;;;;;;4.23;2.80;;;16.50;99.90;;;;;;5033975;28;20261;-69
2021/05/22 08:41:09;;;;;;;4.60;3.03;;;16.40;99.90;;;;;;5032495;28;20434;-68
2021/05/22 08:43:35;;;;;;;4.47;3.53;;;16.40;99.90;;;;;;5032516;28;20463;-69
2021/05/22 08:46:01;;;;;;;4.00;3.70;;;16.60;99.90;;;;;;5033873;28;20425;-69
2021/05/22 08:48:27;;;;;;;3.43;3.13;;;16.60;99.90;;;;;;5032463;28;20950;-68
2021/05/22 08:50:53;;;;;;;3.53;3.10;;;16.60;99.90;;;;;;5033819;28;20905;-71
2021/05/22 08:53:22;;;;;;;3.80;3.07;;;16.60;99.90;;;;;;5033643;28;20439;-69
2021/05/22 08:55:47;;;;;;;7.40;3.80;;;16.70;99.90;;;;;;5033033;28;20431;-69
2021/05/22 08:58:14;;;;;;;5.13;3.57;;;16.60;99.90;;;;;;5031766;28;20497;-70
2021/05/22 09:00:40;;;;;;;3.87;3.40;;;16.70;99.90;;;;;;5032857;28;20391;-68
2021/05/22 09:03:07;;;;;;;3.97;3.60;;;16.70;99.90;;;;;;5032425;28;20880;-68
2021/05/22 09:05:34;;;;;;;4.83;3.57;;;16.70;99.90;;;;;;5031499;28;20404;-68
2021/05/22 09:08:02;;;;;;;4.27;3.80;;;16.80;99.90;;;;;;5031463;28;20430;-71
2021/05/22 09:10:37;;;;;;;4.77;3.57;;;16.80;99.90;;;;;;5030149;28;20412;-68
2021/05/22 09:13:19;;;;;;;4.90;3.53;;;16.90;99.90;;;;;;5031327;28;20825;-68
2021/05/22 09:15:46;;;;;;;5.13;3.53;;;16.90;99.90;;;;;;5020093;28;20507;-68
2021/05/22 09:18:21;;;;;;;4.67;4.17;;;16.80;99.90;;;;;;5011842;28;20471;-68
2021/05/22 09:20:50;;;;;;;5.03;4.10;;;16.90;99.90;;;;;;5035064;28;20466;-71
2021/05/22 09:23:20;;;;;;;4.63;4.23;;;16.90;99.90;;;;;;5036050;28;20529;-68
2021/05/22 09:25:55;;;;;;;4.80;4.23;;;17.00;99.90;;;;;;5037489;28;20807;-69
2021/05/22 09:28:23;;;;;;;4.83;4.10;;;17.00;99.90;;;;;;5037359;28;20431;-68
2021/05/22 09:30:50;;;;;;;6.37;4.33;;;17.00;99.90;;;;;;5035977;28;20839;-68
2021/05/22 09:33:22;;;;;;;5.03;4.50;;;17.10;99.90;;;;;;5037224;28;20438;-69
2021/05/22 09:35:53;;;;;;;5.30;4.67;;;17.10;99.90;;;;;;5037390;28;20411;-68
2021/05/22 09:38:19;;;;;;;5.60;4.70;;;17.10;99.90;;;;;;5037142;28;20837;-69
2021/05/22 09:40:46;;;;;;;5.83;3.90;;;17.30;99.90;;;;;;5037269;28;20407;-68
2021/05/22 09:43:13;;;;;;;5.73;4.57;;;17.40;99.90;;;;;;5036922;28;20968;-68
2021/05/22 09:45:44;;;;;;;6.37;4.80;;;17.50;99.90;;;;;;5037132;28;20392;-69
2021/05/22 09:48:18;;;;;;;6.47;5.27;;;17.50;99.90;;;;;;5036967;28;20434;-69
2021/05/22 09:50:44;;;;;;;7.33;5.27;;;17.40;99.90;;;;;;5037024;28;20753;-68
2021/05/22 09:53:27;;;;;;;6.00;5.50;;;17.50;99.90;;;;;;5035623;28;20444;-68
2021/05/22 09:56:21;;;;;;;5.83;5.23;;;17.50;99.90;;;;;;5037008;28;20187;-70
2021/05/22 09:58:49;;;;;;;7.13;5.20;;;17.70;99.90;;;;;;5035570;28;20426;-68
2021/05/22 10:01:16;;;;;;;5.47;4.97;;;17.70;99.90;;;;;;5036659;28;20423;-68
2021/05/22 10:03:43;;;;;;;4.83;3.80;;;17.70;99.90;;;;;;5036689;28;20507;-70
2021/05/22 10:06:08;;;;;;;4.80;3.23;;;17.80;99.90;;;;;;5036754;28;20415;-68
2021/05/22 10:08:35;;;;;;;5.33;4.57;;;17.70;99.90;;;;;;5036655;28;20484;-70
2021/05/22 10:11:02;;;;;;;7.33;6.47;;;17.50;99.90;;;;;;5036607;28;20182;-68
2021/05/22 10:13:28;;;;;;;4.87;4.40;;;17.40;99.90;;;;;;5036516;28;21012;-70
2021/05/22 10:16:00;;;;;;;4.50;3.80;;;17.50;99.90;;;;;;5036622;28;20404;-69
2021/05/22 10:18:28;;;;;;;7.10;4.60;;;17.60;99.90;;;;;;5035158;28;20486;-69
2021/05/22 10:20:55;;;;;;;6.23;3.80;;;17.50;99.90;;;;;;5017766;28;20492;-70
2021/05/22 10:23:22;;;;;;;9.73;8.90;;;17.60;99.90;;;;;;5036123;28;20486;-70
2021/05/22 10:25:49;;;;;;;4.57;4.17;;;17.50;99.90;;;;;;5036345;28;20487;-68
2021/05/22 10:28:16;;;;;;;4.30;3.80;;;17.50;99.90;;;;;;5036223;28;20981;-69
2021/05/22 10:30:42;;;;;;;4.30;4.00;;;17.50;99.90;;;;;;5033697;28;20404;-69
2021/05/22 10:33:10;;;;;;;5.20;4.70;;;17.50;99.90;;;;;;5036108;28;20523;-69
2021/05/22 10:35:56;;;;;;;6.27;5.77;;;17.50;99.90;;;;;;5036175;28;20989;-68
2021/05/22 10:38:36;;;;;;;9.33;6.20;;;17.70;99.90;;;;;;5036103;28;20431;-69
2021/05/22 10:41:10;;;;;;;6.40;5.80;;;17.70;99.90;;;;;;5036042;28;20430;-69
2021/05/22 10:43:52;;;;;;;7.67;5.77;;;17.70;99.90;;;;;;5036018;28;20979;-70
2021/05/22 10:46:18;;;;;;;6.47;5.87;;;17.90;99.90;;;;;;5036036;28;20424;-70
2021/05/22 10:48:44;;;;;;;6.23;5.67;;;17.90;99.90;;;;;;5035936;28;20399;-68
2021/05/22 10:51:35;;;;;;;5.60;5.20;;;17.90;99.90;;;;;;5035867;28;20197;-68
2021/05/22 10:54:13;;;;;;;6.33;5.43;;;17.80;99.90;;;;;;5035886;28;20205;-70
2021/05/22 10:56:59;;;;;;;6.43;5.30;;;17.90;99.90;;;;;;5036082;28;20435;-69
2021/05/22 10:59:25;;;;;;;6.40;5.30;;;17.90;99.90;;;;;;5035790;28;20462;-69
2021/05/22 11:01:52;;;;;;;5.90;5.00;;;18.00;99.90;;;;;;5035729;28;20435;-70
2021/05/22 11:04:21;;;;;;;4.07;3.77;;;17.90;99.90;;;;;;5034523;28;20194;-69
2021/05/22 11:06:51;;;;;;;7.20;5.17;;;17.90;99.90;;;;;;5035775;28;20440;-70
2021/05/22 11:09:25;;;;;;;5.13;4.73;;;18.10;99.90;;;;;;5035534;28;20417;-69
2021/05/22 11:11:56;;;;;;;5.90;4.10;;;18.30;99.90;;;;;;5034199;28;20443;-68
2021/05/22 11:14:36;;;;;;;5.20;4.70;;;18.40;99.90;;;;;;5035466;28;20414;-69
2021/05/22 11:17:22;;;;;;;5.00;4.17;;;18.50;99.90;;;;;;5034050;28;20452;-69
2021/05/22 11:22:56;;;;;;;5.60;4.40;;;18.40;99.90;;;;;;5033185;28;20491;-71
2021/05/22 11:25:23;;;;;;;5.33;4.80;;;18.50;99.90;;;;;;5035152;28;20419;-71
2021/05/22 11:27:51;;;;;;;4.83;3.87;;;18.70;99.90;;;;;;5035175;28;20522;-71
2021/05/22 11:30:27;;;;;;;4.87;4.50;;;18.70;99.90;;;;;;5035121;28;20410;-69
2021/05/22 11:33:08;;;;;;;5.07;3.77;;;18.70;99.90;;;;;;5035166;28;20477;-70
2021/05/22 11:35:35;;;;;;;6.07;5.47;;;18.60;99.90;;;;;;5035032;28;20797;-69
2021/05/22 11:38:13;;;;;;;6.20;4.30;;;18.60;99.90;;;;;;5033610;28;20774;-68
2021/05/22 11:40:39;;;;;;;4.27;3.87;;;18.80;99.90;;;;;;5034946;28;20814;-71
2021/05/22 11:43:20;;;;;;;4.37;3.97;;;18.70;99.90;;;;;;5034407;28;20562;-69
2021/05/22 11:45:56;;;;;;;4.77;4.17;;;18.70;99.90;;;;;;5034994;28;20766;-68
2021/05/22 11:48:34;;;;;;;5.03;4.10;;;19.00;99.90;;;;;;5033479;28;20532;-69
2021/05/22 11:51:05;;;;;;;6.37;5.80;;;18.80;99.90;;;;;;5034940;28;20907;-70
2021/05/22 11:53:31;;;;;;;4.63;4.20;;;18.90;99.90;;;;;;5034591;28;20438;-70
2021/05/22 11:56:11;;;;;;;6.10;5.40;;;18.90;99.90;;;;;;5033357;28;20437;-68
2021/05/22 11:58:39;;;;;;;4.97;4.47;;;18.90;99.90;;;;;;5034677;28;20757;-70
2021/05/22 12:01:31;;;;;;;5.70;3.57;;;19.00;99.90;;;;;;5034613;28;20428;-68
2021/05/22 12:04:02;;;;;;;4.17;3.80;;;19.10;99.90;;;;;;5034498;28;20464;-70
2021/05/22 12:06:40;;;;;;;21.50;19.30;;;19.10;99.90;;;;;;5033465;28;20816;-71
2021/05/22 12:09:17;;;;;;;5.93;5.43;;;19.30;99.90;;;;;;5034429;28;20402;-69
2021/05/22 12:11:59;;;;;;;4.03;3.63;;;19.20;99.90;;;;;;5034515;28;20445;-69
2021/05/22 12:14:41;;;;;;;9.87;9.07;;;19.20;99.90;;;;;;5034303;28;20406;-69
2021/05/22 12:17:08;;;;;;;11.27;9.37;;;19.30;99.90;;;;;;5034519;28;20468;-69
2021/05/22 12:19:39;;;;;;;9.67;8.83;;;19.40;99.90;;;;;;5034218;28;20484;-70
2021/05/22 12:22:05;;;;;;;6.93;4.90;;;19.40;99.90;;;;;;5028593;28;20463;-68
2021/05/22 12:24:31;;;;;;;6.00;4.20;;;19.40;99.90;;;;;;5029392;28;20462;-71
2021/05/22 12:26:58;;;;;;;4.23;3.83;;;19.50;99.90;;;;;;5033973;28;20543;-70
2021/05/22 12:29:26;;;;;;;3.93;3.53;;;19.60;99.90;;;;;;5033983;28;20406;-69
2021/05/22 12:32:00;;;;;;;4.97;3.30;;;19.50;99.90;;;;;;5034185;28;20449;-68
2021/05/22 12:34:27;;;;;;;4.33;3.10;;;19.60;99.90;;;;;;5034327;28;20398;-71
2021/05/22 12:37:15;;;;;;;4.33;3.90;;;19.60;99.90;;;;;;5034263;28;20476;-68
2021/05/22 12:39:47;;;;;;;4.50;4.10;;;19.60;99.90;;;;;;5023304;28;20430;-69
2021/05/22 12:42:21;;;;;;;2.87;2.57;;;19.50;99.90;;;;;;5034109;28;20559;-68
2021/05/22 12:44:49;;;;;;;3.30;3.00;;;19.50;99.90;;;;;;5033893;28;20427;-69
2021/05/22 12:47:15;;;;;;;2.90;2.57;;;19.60;99.90;;;;;;5032516;28;20537;-70
2021/05/22 12:50:07;;;;;;;3.47;3.17;;;19.50;99.90;;;;;;5033874;28;20412;-70